Strona główna
METAR-TAF:

METAR-TAF

Lotnisko :

Port lotniczy Irkuck

Irkuck, Rosja

Szerokość geograficzna: 52-16N, Długość geograficzna: 104-19E, wysokość: 513 m

Aktualna obserwacja pogody

Raport powstał 19 minut temu, godzina 07:00 UTC
Wiatr 10 kt od południowo-południowy wschód
Temperatura -3°C
Wilgotność 50%
Ciśnienie 1032 hPa
Widzialność 10 km lub więcej
Brak chmur poniżej 1500 m i brak chmur cumulonimbus

METAR: UIII 240700Z 16005MPS CAVOK M03/M12 Q1032 R12/810550 NOSIG RMK QFE731/0975

czas: 15:19 (07:19 UTC)

Prognoza

Raport powstał 2 godziny i 19 minut temu, godzina 05:00 UTC
Prognoza ważna od 24 godzina 06 UTC do 25 godzina 06 UTC
Wiatr 12 kt od południowy wschód
Widzialność 10 km lub więcej
Brak chmur poniżej 1500 m i brak chmur cumulonimbus

TAF: UIII 240500Z 2406/2506 14006MPS CAVOK

Obserwacja i prognoza pogody dla ponad 4000 lotnisk (raport METAR i TAF).

Dostępne stacje oznaczono żółtymi i czerwonymi punktami na mapie.

Najedź kursorem aby zobaczyć nazwę stacji.

Kliknij aby zobaczyć obserwacje i prognozy pogody.

Aby zmienić mapę: kliknij na zielony przycisk z czarnym krzyżykiem, aby powiększyć; na zielony przycisk z myślnikiem, aby pomniejszyć; na zielone strzałki, aby przejść do map sąsiednich.


METAR-TAF: